Oakfield, GA (31772)

3:48 PM EDT on March 26, 2017 (GMT -0400)
Cobb Georgia | | Change Station

Elev 285 ft 31.98 °N, 83.96 °W | Updated 10 minutes ago

Partly Cloudy
Partly Cloudy
82.8 °F
Feels Like 83 °F
N
5.0
Wind Variable Wind from WNW
Gusts 11.0 mph

Today
High -- | Low -- °F
--% Chance of Precip.
Yesterday
High -- | Low -- °F
Precip. -- in
Pressure 30.09 in
Visibility 10.0 miles
Clouds Mostly Cloudy 5000 ft
Mostly Cloudy 6500 ft
Heat Index 83 °F
Dew Point 59 °F
Humidity 44%
Rainfall 0.07 in
Snow Depth Not available.
7:31 AM 7:51 PM
Waning Crescent, 2% visible
METAR KCKF 261935Z AUTO 22008KT 10SM BKN050 BKN065 29/14 A3009 RMK AO2 T02910135
Pressure 30.09 in
Visibility 10.0 miles
Clouds Mostly Cloudy 5000 ft
Mostly Cloudy 6500 ft
Heat Index 83 °F
Dew Point 59 °F
Humidity 44%
Rainfall 0.07 in
Snow Depth Not available.
7:31 AM 7:51 PM
Waning Crescent, 2% visible
METAR KCKF 261935Z AUTO 22008KT 10SM BKN050 BKN065 29/14 A3009 RMK AO2 T02910135

Get Severe Weather Alerts

Thanks for signing up!

Be on the lookout for a verification email in your inbox.

You'll start receiving the daily forecast at 8 AM.

×

10-Day Weather Forecast

Almanac

Astronomy

Mar. 26, 2017 Rise Set
Actual Time
Civil Twilight
Nautical Twilight
Astronomical Twilight
Moon
Length of Visible Light
Length of Day
Tomorrow will be .
, % of the Moon is Illuminated

Today's Extremes

State Highs State Lows

Community

WunderPhotos

Upload Photos

1,962,540 photos uploaded!

WunderBlog® & News

Nearby

Air Quality

  Air Quality AQ Index Pollutant
Not available.

Snow Depth

Station Depth Elevation

Earthquake Activity

City Distance Mag. Time & Date
Minimum magnitude displayed is 2.5.

Earthquake Activity

City Distance Mag. Time & Date
Minimum magnitude displayed is 2.5.

Coastal Water Temperatures

Place Temperature

Stations

Nearby Weather Stations

Station Location Temp. Windchill Dew Point Humidity Wind Precip. Elev Updated Type
                   

Watches & Warnings

There are currently no watches in effect.